Terminal Aerodrome Forecast
Issued by NWS Newport/Morehead City, NC

Home | Current Version | Previous Version | Graphics & Text | Print | Product List | Glossary On
Versions: 1 2 3 4 5 6 7 8 9 10 11 12 13 14 15 16 17 18
658
FTUS42 KMHX 101131
TAFEWN
TAF
KEWN 101131Z 1012/1112 27007KT P6SM SKC
     FM101400 27011G19KT P6SM SCT045
     FM110000 25007KT P6SM SKC=

USA.gov is the U.S. government's official web portal to all federal, state and local government web resources and services.